createdAt,value
2023-04-15T00:02:28.139Z,1.65
2023-04-15T00:05:30.288Z,1.52
2023-04-15T00:08:32.196Z,1.50
2023-04-15T00:11:33.866Z,1.65
2023-04-15T00:14:37.035Z,1.27
2023-04-15T00:17:39.770Z,1.30
2023-04-15T00:20:41.604Z,1.77
2023-04-15T00:23:43.999Z,1.70
2023-04-15T00:26:45.700Z,1.58
2023-04-15T00:29:48.708Z,1.88
2023-04-15T00:32:50.491Z,1.27
2023-04-15T00:35:56.009Z,1.20
2023-04-15T00:38:59.088Z,1.55
2023-04-15T00:42:01.907Z,1.02
2023-04-15T00:45:07.101Z,1.60
2023-04-15T00:48:09.475Z,1.30
2023-04-15T00:51:11.174Z,1.00
2023-04-15T00:54:13.000Z,0.60
2023-04-15T00:57:15.973Z,0.60
2023-04-15T01:00:20.499Z,1.20
2023-04-15T01:03:22.794Z,1.00
2023-04-15T01:06:25.083Z,0.70
2023-04-15T01:09:27.166Z,0.75
2023-04-15T01:12:29.484Z,0.80
2023-04-15T01:15:32.794Z,0.80
2023-04-15T01:18:35.170Z,0.47
2023-04-15T01:21:38.100Z,0.57
2023-04-15T01:24:40.401Z,0.77
2023-04-15T01:27:43.696Z,0.70
2023-04-15T01:30:45.655Z,1.00
2023-04-15T01:33:49.680Z,0.82
2023-04-15T01:36:51.815Z,0.55
2023-04-15T01:39:57.299Z,0.70
2023-04-15T01:43:00.512Z,0.77
2023-04-15T01:46:02.518Z,0.88
2023-04-15T01:49:04.307Z,0.90
2023-04-15T01:52:07.961Z,0.88
2023-04-15T01:55:10.564Z,1.00
2023-04-15T01:58:15.137Z,0.88
2023-04-15T02:01:21.938Z,0.93
2023-04-15T02:04:23.853Z,1.15
2023-04-15T02:07:26.846Z,0.52
2023-04-15T02:10:28.483Z,0.93
2023-04-15T02:13:31.474Z,1.00
2023-04-15T02:16:33.698Z,1.10
2023-04-15T02:19:35.705Z,0.77
2023-04-15T02:22:38.515Z,0.70
2023-04-15T02:25:40.487Z,0.52
2023-04-15T02:28:43.635Z,0.50
2023-04-15T02:31:45.736Z,0.60
2023-04-15T02:34:47.472Z,0.60
2023-04-15T02:37:49.203Z,0.50
2023-04-15T02:40:51.189Z,0.40
2023-04-15T02:43:54.391Z,0.50
2023-04-15T02:46:56.192Z,0.95
2023-04-15T02:50:00.436Z,0.50
2023-04-15T02:53:04.311Z,0.50
2023-04-15T02:56:06.629Z,0.50
2023-04-15T02:59:09.846Z,0.50
2023-04-15T03:02:11.605Z,0.63
2023-04-15T03:05:14.501Z,0.60
2023-04-15T03:08:24.152Z,0.45
2023-04-15T03:11:27.261Z,0.40
2023-04-15T03:14:30.376Z,0.63
2023-04-15T03:17:32.267Z,0.52
2023-04-15T03:20:35.952Z,0.50
2023-04-15T03:23:37.803Z,0.43
2023-04-15T03:26:39.960Z,0.40
2023-04-15T03:29:49.251Z,0.63
2023-04-15T03:32:52.573Z,0.55
2023-04-15T03:35:54.791Z,0.70
2023-04-15T03:38:56.756Z,0.50
2023-04-15T03:41:59.501Z,0.47
2023-04-15T03:45:03.411Z,0.55
2023-04-15T03:48:16.529Z,0.82
2023-04-15T03:51:19.564Z,0.52
2023-04-15T03:54:21.668Z,0.60
2023-04-15T03:57:23.908Z,1.25
2023-04-15T04:00:26.979Z,0.75
2023-04-15T04:03:29.047Z,0.60
2023-04-15T04:06:31.157Z,0.40
2023-04-15T04:09:32.840Z,0.45
2023-04-15T04:12:34.589Z,0.68
2023-04-15T04:15:37.771Z,0.52
2023-04-15T04:18:39.504Z,0.55
2023-04-15T04:21:41.351Z,0.90
2023-04-15T04:24:43.031Z,0.50
2023-04-15T04:27:45.701Z,0.80
2023-04-15T04:30:48.772Z,0.90
2023-04-15T04:33:50.455Z,0.50
2023-04-15T04:36:52.058Z,0.85
2023-04-15T04:39:53.825Z,0.45
2023-04-15T04:42:55.863Z,0.52
2023-04-15T04:45:58.962Z,0.95
2023-04-15T04:49:01.134Z,0.90
2023-04-15T04:52:03.119Z,1.05
2023-04-15T04:55:05.561Z,0.60
2023-04-15T04:58:07.238Z,1.02
2023-04-15T05:01:10.623Z,0.50
2023-04-15T05:04:12.606Z,0.80
2023-04-15T05:07:14.416Z,1.05
2023-04-15T05:10:18.013Z,0.70
2023-04-15T05:13:21.514Z,0.77
2023-04-15T05:16:25.820Z,1.00
2023-04-15T05:19:27.528Z,1.02
2023-04-15T05:22:29.552Z,1.23
2023-04-15T05:25:31.634Z,0.90
2023-04-15T05:28:33.312Z,0.68
2023-04-15T05:31:36.805Z,0.88
2023-04-15T05:34:38.686Z,0.77
2023-04-15T05:37:40.697Z,0.65
2023-04-15T05:40:42.566Z,0.65
2023-04-15T05:43:44.247Z,0.68
2023-04-15T05:46:47.327Z,0.57
2023-04-15T05:49:49.175Z,0.75
2023-04-15T05:52:51.182Z,0.52
2023-04-15T05:55:52.894Z,1.23
2023-04-15T05:58:54.628Z,0.93
2023-04-15T06:01:57.940Z,1.50
2023-04-15T06:05:00.137Z,2.60
2023-04-15T06:08:02.207Z,1.45
2023-04-15T06:11:04.168Z,0.82
2023-04-15T06:14:05.988Z,1.40
2023-04-15T06:17:09.363Z,1.85
2023-04-15T06:20:12.337Z,1.05
2023-04-15T06:23:14.090Z,0.82
2023-04-15T06:26:15.828Z,1.00
2023-04-15T06:29:17.587Z,1.33
2023-04-15T06:32:22.332Z,1.60
2023-04-15T06:35:23.981Z,1.27
2023-04-15T06:38:25.879Z,1.45
2023-04-15T06:41:27.668Z,1.20
2023-04-15T06:44:29.726Z,1.33
2023-04-15T06:47:33.505Z,1.67
2023-04-15T06:50:35.749Z,1.40
2023-04-15T06:53:41.085Z,1.02
2023-04-15T06:56:43.112Z,0.80
2023-04-15T06:59:44.822Z,1.10
2023-04-15T07:02:48.134Z,1.00
2023-04-15T07:05:50.170Z,2.00
2023-04-15T07:08:51.915Z,2.25
2023-04-15T07:11:53.582Z,1.75
2023-04-15T07:14:55.311Z,1.55
2023-04-15T07:17:58.391Z,1.80
2023-04-15T07:21:00.242Z,1.30
2023-04-15T07:24:02.397Z,1.13
2023-04-15T07:27:04.112Z,1.50
2023-04-15T07:30:07.419Z,1.38
2023-04-15T07:33:10.808Z,1.55
2023-04-15T07:36:13.187Z,1.15
2023-04-15T07:39:14.978Z,1.35
2023-04-15T07:42:16.827Z,1.30
2023-04-15T07:45:18.818Z,0.93
2023-04-15T07:48:21.956Z,1.10
2023-04-15T07:51:23.609Z,1.60
2023-04-15T07:54:25.809Z,2.42
2023-04-15T07:57:27.492Z,2.80
2023-04-15T08:00:29.306Z,4.72
2023-04-15T08:03:33.389Z,3.10
2023-04-15T08:06:35.266Z,1.45
2023-04-15T08:09:37.037Z,2.00
2023-04-15T08:12:38.840Z,2.30
2023-04-15T08:15:40.862Z,1.90
2023-04-15T08:18:44.387Z,2.00
2023-04-15T08:21:46.199Z,1.70
2023-04-15T08:24:47.947Z,1.58
2023-04-15T08:27:49.713Z,1.30
2023-04-15T08:30:52.976Z,1.45
2023-04-15T08:33:57.520Z,1.20
2023-04-15T08:36:59.390Z,1.50
2023-04-15T08:40:01.525Z,1.77
2023-04-15T08:43:05.073Z,1.23
2023-04-15T08:46:08.688Z,2.00
2023-04-15T08:49:13.265Z,1.05
2023-04-15T08:52:15.321Z,1.60
2023-04-15T08:55:17.304Z,1.50
2023-04-15T08:58:19.809Z,1.65
2023-04-15T09:01:22.466Z,0.93
2023-04-15T09:04:25.873Z,1.67
2023-04-15T09:07:27.624Z,1.35
2023-04-15T09:10:30.034Z,1.70
2023-04-15T09:13:32.099Z,1.73
2023-04-15T09:16:58.853Z,1.80
2023-04-15T09:20:13.817Z,1.83
2023-04-15T09:23:17.516Z,1.70
2023-04-15T09:29:41.377Z,1.75
2023-04-15T09:32:50.078Z,1.58
2023-04-15T09:36:01.836Z,1.40
2023-04-15T09:39:03.857Z,1.40
2023-04-15T09:42:07.006Z,1.77
2023-04-15T09:45:09.537Z,3.03
2023-04-15T09:48:20.861Z,1.52
2023-04-15T09:51:35.119Z,1.77
2023-04-15T09:54:38.871Z,1.38
2023-04-15T09:57:41.700Z,1.23
2023-04-15T10:00:44.010Z,2.45
2023-04-15T10:03:46.818Z,0.80
2023-04-15T10:06:50.792Z,0.50
2023-04-15T10:09:53.153Z,5.65
2023-04-15T10:12:55.669Z,2.08
2023-04-15T10:15:59.537Z,3.58
2023-04-15T10:19:04.451Z,0.63
2023-04-15T10:22:08.421Z,0.30
2023-04-15T10:25:11.745Z,4.03
2023-04-15T10:28:14.554Z,0.90
2023-04-15T10:31:18.505Z,0.50
2023-04-15T10:34:21.721Z,0.60
2023-04-15T10:37:35.577Z,0.50
2023-04-15T10:40:39.522Z,0.77
2023-04-15T10:43:47.753Z,0.60
2023-04-15T10:46:51.813Z,0.50
2023-04-15T10:49:58.862Z,0.60
2023-04-15T10:53:05.055Z,0.60
2023-04-15T10:56:07.519Z,0.68
2023-04-15T10:59:09.765Z,0.30
2023-04-15T11:02:14.044Z,0.70
2023-04-15T11:05:16.798Z,0.45
2023-04-15T11:08:21.205Z,0.30
2023-04-15T11:11:22.975Z,0.32
2023-04-15T11:14:24.825Z,0.40
2023-04-15T11:17:29.032Z,0.32
2023-04-15T11:20:32.359Z,0.40
2023-04-15T11:23:38.782Z,0.30
2023-04-15T11:26:40.539Z,0.47
2023-04-15T11:29:42.308Z,0.30
2023-04-15T11:32:44.153Z,0.52
2023-04-15T11:35:46.146Z,0.35
2023-04-15T11:38:49.272Z,0.43
2023-04-15T11:41:51.028Z,0.45
2023-04-15T11:45:07.395Z,0.30
2023-04-15T11:48:10.492Z,0.35
2023-04-15T11:51:13.425Z,0.20
2023-04-15T11:54:20.575Z,0.50
2023-04-15T11:57:22.252Z,0.40
2023-04-15T12:00:24.687Z,0.50
2023-04-15T12:03:28.619Z,0.60
2023-04-15T12:09:57.859Z,0.68
2023-04-15T12:12:59.622Z,0.40
2023-04-15T12:16:03.661Z,0.77
2023-04-15T12:19:09.181Z,0.60
2023-04-15T12:22:12.631Z,0.63
2023-04-15T12:25:16.010Z,0.65
2023-04-15T12:28:17.706Z,0.50
2023-04-15T12:31:20.059Z,0.70
2023-04-15T12:34:29.526Z,0.77
2023-04-15T12:37:31.267Z,0.52
2023-04-15T12:40:34.304Z,0.68
2023-04-15T12:43:36.130Z,0.55
2023-04-15T12:46:38.274Z,0.50
2023-04-15T12:49:40.823Z,0.60
2023-04-15T12:52:42.658Z,0.50
2023-04-15T12:55:45.804Z,0.38
2023-04-15T12:58:47.383Z,0.43
2023-04-15T13:01:49.631Z,0.65
2023-04-15T13:04:54.597Z,0.60
2023-04-15T13:07:56.609Z,0.52
2023-04-15T13:10:59.946Z,0.60
2023-04-15T13:14:03.146Z,0.25
2023-04-15T13:17:10.123Z,0.35
2023-04-15T13:20:12.242Z,0.60
2023-04-15T13:23:14.878Z,0.17
2023-04-15T13:26:18.070Z,0.32
2023-04-15T13:29:20.229Z,0.30
2023-04-15T13:32:21.906Z,0.38
2023-04-15T13:35:23.724Z,0.63
2023-04-15T13:38:25.868Z,0.40
2023-04-15T13:41:29.078Z,0.22
2023-04-15T13:44:31.140Z,0.50
2023-04-15T13:47:32.994Z,0.60
2023-04-15T13:50:35.094Z,0.60
2023-04-15T13:53:38.755Z,0.40
2023-04-15T13:56:42.889Z,0.50
2023-04-15T13:59:44.625Z,0.60
2023-04-15T14:02:46.636Z,0.52
2023-04-15T14:05:53.374Z,0.68
2023-04-15T14:08:55.571Z,0.43
2023-04-15T14:12:00.161Z,0.22
2023-04-15T14:15:02.405Z,0.40
2023-04-15T14:18:04.471Z,0.20
2023-04-15T14:21:09.806Z,0.20
2023-04-15T14:24:11.851Z,0.30
2023-04-15T14:27:15.417Z,0.65
2023-04-15T14:30:17.882Z,0.30
2023-04-15T14:33:19.658Z,0.30
2023-04-15T14:36:23.947Z,0.35
2023-04-15T14:39:25.732Z,0.20
2023-04-15T14:42:28.868Z,0.25
2023-04-15T14:45:31.567Z,0.10
2023-04-15T14:48:33.466Z,0.20
2023-04-15T14:51:35.247Z,0.20
2023-04-15T14:54:37.207Z,0.20
2023-04-15T14:57:42.278Z,0.10
2023-04-15T15:00:44.769Z,0.10
2023-04-15T15:03:46.670Z,0.10
2023-04-15T15:06:49.191Z,0.20
2023-04-15T15:09:51.141Z,0.30
2023-04-15T15:12:54.238Z,0.13
2023-04-15T15:15:57.116Z,0.20
2023-04-15T15:18:58.982Z,0.30
2023-04-15T15:22:00.770Z,0.20
2023-04-15T15:25:02.655Z,0.20
2023-04-15T15:28:06.709Z,0.40
2023-04-15T15:31:08.746Z,0.30
2023-04-15T15:34:10.505Z,0.70
2023-04-15T15:37:12.248Z,0.40
2023-04-15T15:40:14.571Z,0.38
2023-04-15T15:44:54.969Z,0.80
2023-04-15T15:47:58.275Z,0.15
2023-04-15T15:51:01.408Z,0.10
2023-04-15T15:54:03.302Z,0.30
2023-04-15T15:57:05.048Z,0.10
2023-04-15T16:03:30.680Z,0.30
2023-04-15T16:06:34.934Z,0.20
2023-04-15T16:09:37.139Z,0.10
2023-04-15T16:12:38.903Z,0.10
2023-04-15T16:15:41.934Z,0.30
2023-04-15T16:18:43.758Z,0.40
2023-04-15T16:21:45.754Z,0.32
2023-04-15T16:24:47.407Z,0.20
2023-04-15T16:27:59.397Z,0.50
2023-04-15T16:31:06.594Z,0.50
2023-04-15T16:34:08.842Z,0.40
2023-04-15T16:37:10.642Z,0.90
2023-04-15T16:40:13.054Z,0.40
2023-04-15T16:43:14.861Z,0.50
2023-04-15T16:46:18.061Z,0.40
2023-04-15T16:49:20.016Z,0.25
2023-04-15T16:52:21.721Z,0.73
2023-04-15T16:55:23.698Z,0.52
2023-04-15T16:58:25.474Z,0.80
2023-04-15T17:01:28.902Z,0.75
2023-04-15T17:04:30.833Z,0.50
2023-04-15T17:07:32.693Z,0.65
2023-04-15T17:10:34.396Z,0.70
2023-04-15T17:13:36.405Z,0.77
2023-04-15T17:16:40.254Z,0.90
2023-04-15T17:19:42.286Z,0.95
2023-04-15T17:22:45.245Z,1.17
2023-04-15T17:25:47.804Z,1.02
2023-04-15T17:28:49.757Z,0.85
2023-04-15T17:31:53.042Z,0.90
2023-04-15T17:34:54.776Z,0.93
2023-04-15T17:37:56.501Z,1.65
2023-04-15T17:40:58.994Z,0.88
2023-04-15T17:44:00.873Z,0.50
2023-04-15T17:47:04.104Z,1.08
2023-04-15T17:50:07.503Z,1.00
2023-04-15T17:53:09.281Z,1.00
2023-04-15T17:56:11.044Z,1.15
2023-04-15T17:59:12.780Z,1.23
2023-04-15T18:02:16.024Z,1.00
2023-04-15T18:05:19.834Z,1.27
2023-04-15T18:08:21.666Z,0.90
2023-04-15T18:11:23.911Z,1.10
2023-04-15T18:14:34.327Z,0.90
2023-04-15T18:17:38.276Z,1.23
2023-04-15T18:20:40.213Z,1.02
2023-04-15T18:23:42.278Z,1.17
2023-04-15T18:26:44.473Z,1.73
2023-04-15T18:29:47.359Z,1.25
2023-04-15T18:32:50.473Z,1.38
2023-04-15T18:35:52.219Z,1.10
2023-04-15T18:38:53.886Z,1.50
2023-04-15T18:41:56.442Z,1.65
2023-04-15T18:44:58.587Z,1.17
2023-04-15T18:48:02.326Z,1.60
2023-04-15T18:51:04.086Z,1.52
2023-04-15T18:54:06.241Z,1.52
2023-04-15T18:57:08.099Z,1.83
2023-04-15T19:00:11.410Z,1.30
2023-04-15T19:03:14.722Z,1.88
2023-04-15T19:06:16.706Z,1.83
2023-04-15T19:09:18.564Z,1.70
2023-04-15T19:12:20.288Z,2.00
2023-04-15T19:15:22.226Z,1.40
2023-04-15T19:18:26.165Z,1.90
2023-04-15T19:21:31.859Z,1.45
2023-04-15T19:24:33.895Z,1.80
2023-04-15T19:27:35.752Z,2.00
2023-04-15T19:30:37.567Z,1.98
2023-04-15T19:33:40.566Z,1.83
2023-04-15T19:36:42.678Z,1.85
2023-04-15T19:39:44.473Z,2.00
2023-04-15T19:42:46.285Z,1.55
2023-04-15T19:45:49.342Z,1.40
2023-04-15T19:48:53.262Z,1.90
2023-04-15T19:51:54.893Z,1.67
2023-04-15T19:54:56.662Z,1.58
2023-04-15T19:57:58.430Z,1.73
2023-04-15T20:01:01.405Z,1.83
2023-04-15T20:04:04.932Z,1.27
2023-04-15T20:07:06.984Z,1.98
2023-04-15T20:10:13.083Z,1.33
2023-04-15T20:13:15.173Z,1.65
2023-04-15T20:16:16.847Z,1.40
2023-04-15T20:19:19.913Z,1.70
2023-04-15T20:22:21.589Z,1.92
2023-04-15T20:25:23.447Z,2.17
2023-04-15T20:28:27.392Z,1.60
2023-04-15T20:31:29.259Z,2.05
2023-04-15T20:34:32.483Z,2.03
2023-04-15T20:37:34.297Z,1.70
2023-04-15T20:40:36.327Z,2.17
2023-04-15T20:43:38.010Z,2.00
2023-04-15T20:46:40.515Z,1.77
2023-04-15T20:49:43.756Z,1.67
2023-04-15T20:52:45.637Z,1.67
2023-04-15T20:55:47.351Z,2.40
2023-04-15T20:58:49.053Z,1.70
2023-04-15T21:01:50.838Z,1.63
2023-04-15T21:04:53.949Z,2.03
2023-04-15T21:07:55.927Z,1.90
2023-04-15T21:10:57.828Z,2.63
2023-04-15T21:13:59.602Z,2.72
2023-04-15T21:17:07.911Z,1.67
2023-04-15T21:20:13.344Z,2.10
2023-04-15T21:23:15.358Z,2.25
2023-04-15T21:26:17.004Z,2.28
2023-04-15T21:29:18.844Z,2.13
2023-04-15T21:32:20.523Z,2.15
2023-04-15T21:35:23.660Z,2.15
2023-04-15T21:38:25.502Z,1.95
2023-04-15T21:41:27.272Z,2.50
2023-04-15T21:44:29.038Z,2.05
2023-04-15T21:47:30.748Z,2.15
2023-04-15T21:50:33.823Z,2.25
2023-04-15T21:53:35.984Z,2.55
2023-04-15T21:56:37.948Z,2.97
2023-04-15T21:59:39.673Z,2.72
2023-04-15T22:02:41.655Z,2.55
2023-04-15T22:05:45.923Z,2.40
2023-04-15T22:08:57.049Z,2.13
2023-04-15T22:11:59.437Z,2.00
2023-04-15T22:15:01.412Z,2.20
2023-04-15T22:18:03.460Z,2.13
2023-04-15T22:21:06.746Z,2.17
2023-04-15T22:24:38.147Z,2.33
2023-04-15T22:27:30.242Z,2.30
2023-04-15T22:30:32.012Z,2.20
2023-04-15T22:33:33.906Z,1.90
2023-04-15T22:36:37.219Z,1.95
2023-04-15T22:39:38.968Z,1.75
2023-04-15T22:42:41.083Z,2.17
2023-04-15T22:45:42.875Z,1.48
2023-04-15T22:48:44.610Z,1.40
2023-04-15T22:51:47.712Z,1.27
2023-04-15T22:54:49.459Z,1.45
2023-04-15T22:57:52.608Z,1.10
2023-04-15T23:00:54.313Z,1.33
2023-04-15T23:04:03.158Z,1.40
2023-04-15T23:07:10.543Z,1.55
2023-04-15T23:10:12.202Z,1.65
2023-04-15T23:13:13.911Z,2.08
2023-04-15T23:16:15.629Z,1.38
2023-04-15T23:19:17.387Z,1.85
2023-04-15T23:22:20.465Z,1.80
2023-04-15T23:25:22.712Z,1.60
2023-04-15T23:28:24.581Z,1.23
2023-04-15T23:31:26.449Z,1.90
2023-04-15T23:34:28.136Z,1.60
2023-04-15T23:37:31.674Z,1.60
2023-04-15T23:40:33.461Z,1.90
2023-04-15T23:43:35.330Z,1.65
2023-04-15T23:46:37.075Z,1.38
2023-04-15T23:49:40.802Z,1.92
2023-04-15T23:52:44.066Z,2.25
2023-04-15T23:55:45.809Z,1.73
2023-04-15T23:58:47.593Z,1.60
